Time;durP1;ratioP1;P1;durP2;ratioP2;P2;SDS_P1;SDS_P2;PMS_P1;PMS_P2;Temp;Humidity;BMP_temperature;BMP_pressure;BME280_temperature;BME280_humidity;BME280_pressure;Samples;Min_cycle;Max_cycle;Signal;HPM_P1;HPM_P2
2021/06/15 00:01:15;;;;;;;;;;;;;;;;;;4976311;28;19917;-77
2021/06/15 00:03:40;;;;;;;;;;;;;;;;;;4960233;28;19910;-77
2021/06/15 00:06:05;;;;;;;;;;;;;;;;;;5044510;28;19909;-77
2021/06/15 00:08:31;;;;;;;;;;;;;;;;;;4959693;28;20348;-77
2021/06/15 00:10:56;;;;;;;;;;;;;;;;;;4976023;28;19910;-77
2021/06/15 00:13:21;;;;;;;;;;;;;;;;;;4992966;28;19971;-77
2021/06/15 00:15:47;;;;;;;;;;;;;;;;;;4975420;28;19910;-77
2021/06/15 00:18:16;;;;;;;;;;;;;;;;;;4959303;28;19909;-77
2021/06/15 00:20:41;;;;;;;;;;;;;;;;;;4959841;28;20287;-78
2021/06/15 00:23:06;;;;;;;;;;;;;;;;;;4976145;28;19910;-77
2021/06/15 00:25:32;;;;;;;;;;;;;;;;;;4993078;28;19918;-77
2021/06/15 00:27:57;;;;;;;;;;;;;;;;;;4959295;28;19921;-77
2021/06/15 00:30:22;;;;;;;;;;;;;;;;;;4975435;28;20277;-77
2021/06/15 00:32:50;;;;;;;;;;;;;;;;;;4959510;28;19960;-77
2021/06/15 00:35:15;;;;;;;;;;;;;;;;;;5059121;28;19910;-77
2021/06/15 00:37:40;;;;;;;;;;;;;;;;;;4975161;28;19909;-78
2021/06/15 00:40:06;;;;;;;;;;;;;;;;;;4975285;28;20291;-78
2021/06/15 00:42:31;;;;;;;;;;;;;;;;;;4975115;28;20383;-77
2021/06/15 00:44:56;;;;;;;;;;;;;;;;;;4975891;28;19932;-77
2021/06/15 00:47:22;;;;;;;;;;;;;;;;;;4992538;28;19914;-77
2021/06/15 00:49:47;;;;;;;;;;;;;;;;;;4959356;28;19910;-77
2021/06/15 00:52:12;;;;;;;;;;;;;;;;;;4976030;28;19920;-77
2021/06/15 00:54:37;;;;;;;;;;;;;;;;;;4975899;28;19913;-77
2021/06/15 00:57:03;;;;;;;;;;;;;;;;;;4975348;28;19917;-77
2021/06/15 00:59:28;;;;;;;;;;;;;;;;;;4958963;28;19913;-77
2021/06/15 01:01:53;;;;;;;;;;;;;;;;;;4974916;28;19917;-77
2021/06/15 01:04:19;;;;;;;;;;;;;;;;;;4975081;28;20342;-77
2021/06/15 01:06:48;;;;;;;;;;;;;;;;;;4974396;28;19910;-77
2021/06/15 01:09:26;;;;;;;;;;;;;;;;;;4973565;28;19910;-77
2021/06/15 01:11:51;;;;;;;;;;;;;;;;;;4958572;28;19910;-77
2021/06/15 01:14:35;;;;;;;;;;;;;;;;;;4974344;28;20360;-77
2021/06/15 01:17:06;;;;;;;;;;;;;;;;;;4974727;28;19918;-77
2021/06/15 01:19:50;;;;;;;;;;;;;;;;;;4974602;28;20355;-77
2021/06/15 01:22:33;;;;;;;;;;;;;;;;;;4991997;28;20330;-78
2021/06/15 01:25:05;;;;;;;;;;;;;;;;;;4991970;28;20307;-77
2021/06/15 01:27:31;;;;;;;;;;;;;;;;;;4958080;28;19920;-78
2021/06/15 01:29:56;;;;;;;;;;;;;;;;;;4992010;28;19910;-77
2021/06/15 01:32:27;;;;;;;;;;;;;;;;;;4974014;28;19967;-77
2021/06/15 01:34:52;;;;;;;;;;;;;;;;;;5058578;28;19916;-77
2021/06/15 01:37:19;;;;;;;;;;;;;;;;;;4974489;28;19910;-77
2021/06/15 01:39:44;;;;;;;;;;;;;;;;;;4974201;28;19910;-77
2021/06/15 01:42:20;;;;;;;;;;;;;;;;;;4973776;28;20028;-77
2021/06/15 01:44:46;;;;;;;;;;;;;;;;;;5059126;28;19909;-77
2021/06/15 01:47:12;;;;;;;;;;;;;;;;;;4973874;28;20353;-77
2021/06/15 01:49:41;;;;;;;;;;;;;;;;;;4991671;28;19909;-77
2021/06/15 01:52:10;;;;;;;;;;;;;;;;;;5057915;28;20027;-77
2021/06/15 01:54:35;;;;;;;;;;;;;;;;;;4974510;28;19917;-77
2021/06/15 01:57:01;;;;;;;;;;;;;;;;;;4974920;28;19910;-77
2021/06/15 01:59:26;;;;;;;;;;;;;;;;;;4975039;28;20329;-77
2021/06/15 02:01:52;;;;;;;;;;;;;;;;;;4974498;28;19916;-77
2021/06/15 02:04:17;;;;;;;;;;;;;;;;;;4974292;28;19917;-77
2021/06/15 02:06:43;;;;;;;;;;;;;;;;;;4973940;28;20287;-77
2021/06/15 02:09:08;;;;;;;;;;;;;;;;;;5042923;28;19910;-77
2021/06/15 02:11:33;;;;;;;;;;;;;;;;;;4974668;28;20279;-77
2021/06/15 02:14:00;;;;;;;;;;;;;;;;;;4975000;28;19914;-77
2021/06/15 02:16:26;;;;;;;;;;;;;;;;;;5059392;28;19917;-78
2021/06/15 02:18:52;;;;;;;;;;;;;;;;;;4975165;28;19910;-77
2021/06/15 02:21:17;;;;;;;;;;;;;;;;;;5046492;28;20000;-78
2021/06/15 02:23:43;;;;;;;;;;;;;;;;;;4977989;28;19910;-79
2021/06/15 02:26:09;;;;;;;;;;;;;;;;;;4957749;28;19919;-78
2021/06/15 02:28:34;;;;;;;;;;;;;;;;;;5043628;28;20016;-77
2021/06/15 02:31:00;;;;;;;;;;;;;;;;;;4992372;28;19921;-77
2021/06/15 02:33:26;;;;;;;;;;;;;;;;;;4958663;28;19913;-78
2021/06/15 02:35:56;;;;;;;;;;;;;;;;;;4974660;28;20012;-78
2021/06/15 02:38:29;;;;;;;;;;;;;;;;;;4958007;28;19917;-78
2021/06/15 02:40:54;;;;;;;;;;;;;;;;;;5042351;28;20012;-78
2021/06/15 02:43:23;;;;;;;;;;;;;;;;;;4973950;28;20479;-78
2021/06/15 02:45:49;;;;;;;;;;;;;;;;;;5059516;28;19943;-76
2021/06/15 02:48:14;;;;;;;;;;;;;;;;;;4976090;28;20367;-77
2021/06/15 02:50:39;;;;;;;;;;;;;;;;;;4976243;28;19948;-77
2021/06/15 02:53:04;;;;;;;;;;;;;;;;;;4993432;28;20287;-77
2021/06/15 02:55:33;;;;;;;;;;;;;;;;;;4975923;28;20364;-76
2021/06/15 02:57:59;;;;;;;;;;;;;;;;;;4975869;28;19910;-76
2021/06/15 03:00:24;;;;;;;;;;;;;;;;;;4993980;28;19996;-77
2021/06/15 03:02:49;;;;;;;;;;;;;;;;;;4959843;28;19941;-76
2021/06/15 03:05:16;;;;;;;;;;;;;;;;;;4975858;28;19910;-77
2021/06/15 03:07:41;;;;;;;;;;;;;;;;;;4975638;28;19921;-77
2021/06/15 03:10:07;;;;;;;;;;;;;;;;;;4976482;28;19910;-77
2021/06/15 03:12:42;;;;;;;;;;;;;;;;;;4975854;28;19948;-77
2021/06/15 03:15:08;;;;;;;;;;;;;;;;;;4975729;28;19909;-76
2021/06/15 03:17:34;;;;;;;;;;;;;;;;;;5060525;28;19963;-76
2021/06/15 03:20:00;;;;;;;;;;;;;;;;;;5060942;28;19914;-77
2021/06/15 03:22:44;;;;;;;;;;;;;;;;;;4993145;28;19916;-76
2021/06/15 03:28:05;;;;;;;;;;;;;;;;;;4991815;28;19921;-81
2021/06/15 03:30:30;;;;;;;;;;;;;;;;;;4994071;28;19913;-81
2021/06/15 03:33:00;;;;;;;;;;;;;;;;;;5079603;28;19920;-81
2021/06/15 03:35:26;;;;;;;;;;;;;;;;;;4994793;28;19909;-81
2021/06/15 03:37:52;;;;;;;;;;;;;;;;;;4994613;28;19909;-81
2021/06/15 03:40:17;;;;;;;;;;;;;;;;;;4994173;28;20367;-81
2021/06/15 03:42:42;;;;;;;;;;;;;;;;;;5079064;28;19919;-81
2021/06/15 03:45:09;;;;;;;;;;;;;;;;;;5078863;28;20024;-81
2021/06/15 03:47:34;;;;;;;;;;;;;;;;;;5096031;28;19912;-84
2021/06/15 03:50:00;;;;;;;;;;;;;;;;;;5062274;28;20000;-82
2021/06/15 03:52:28;;;;;;;;;;;;;;;;;;4977386;28;19909;-82
2021/06/15 03:54:54;;;;;;;;;;;;;;;;;;4994105;28;19917;-82
2021/06/15 03:57:19;;;;;;;;;;;;;;;;;;4993814;28;19910;-82
2021/06/15 03:59:45;;;;;;;;;;;;;;;;;;5078613;28;19966;-82
2021/06/15 04:02:10;;;;;;;;;;;;;;;;;;5079048;28;20347;-82
2021/06/15 04:04:36;;;;;;;;;;;;;;;;;;5079319;28;20359;-82
2021/06/15 04:07:01;;;;;;;;;;;;;;;;;;4977972;28;20014;-81
2021/06/15 04:09:27;;;;;;;;;;;;;;;;;;4994657;28;19910;-81
2021/06/15 04:11:53;;;;;;;;;;;;;;;;;;5011121;28;20050;-81
2021/06/15 04:14:18;;;;;;;;;;;;;;;;;;5080284;28;19970;-81
2021/06/15 04:16:44;;;;;;;;;;;;;;;;;;5079741;28;20408;-81
2021/06/15 04:19:12;;;;;;;;;;;;;;;;;;5063152;28;19945;-81
2021/06/15 04:21:38;;;;;;;;;;;;;;;;;;4993086;28;19916;-81
2021/06/15 04:24:06;;;;;;;;;;;;;;;;;;4993107;28;19910;-79
2021/06/15 04:26:34;;;;;;;;;;;;;;;;;;5039963;28;19912;-80
2021/06/15 04:29:00;;;;;;;;;;;;;;;;;;5096788;28;19916;-79
2021/06/15 04:31:25;;;;;;;;;;;;;;;;;;5080244;28;19995;-79
2021/06/15 04:33:50;;;;;;;;;;;;;;;;;;5097228;28;20354;-80
2021/06/15 04:36:16;;;;;;;;;;;;;;;;;;5096481;28;20028;-79
2021/06/15 04:38:44;;;;;;;;;;;;;;;;;;5079988;28;20374;-79
2021/06/15 04:41:14;;;;;;;;;;;;;;;;;;5097084;28;20290;-79
2021/06/15 04:43:42;;;;;;;;;;;;;;;;;;5080377;28;20326;-79
2021/06/15 04:46:20;;;;;;;;;;;;;;;;;;5098034;28;19908;-80
2021/06/15 04:48:48;;;;;;;;;;;;;;;;;;5079109;28;19960;-78
2021/06/15 04:51:13;;;;;;;;;;;;;;;;;;5079764;28;19916;-79
2021/06/15 04:53:41;;;;;;;;;;;;;;;;;;5096379;28;19935;-79
2021/06/15 04:56:06;;;;;;;;;;;;;;;;;;5096614;28;20366;-79
2021/06/15 04:58:32;;;;;;;;;;;;;;;;;;5080030;28;19908;-79
2021/06/15 05:00:57;;;;;;;;;;;;;;;;;;5080221;28;19915;-79
2021/06/15 05:03:22;;;;;;;;;;;;;;;;;;5097299;28;19912;-79
2021/06/15 05:05:48;;;;;;;;;;;;;;;;;;5097477;28;19908;-79
2021/06/15 05:08:14;;;;;;;;;;;;;;;;;;5079237;28;20338;-79
2021/06/15 05:10:39;;;;;;;;;;;;;;;;;;5097150;28;19908;-79
2021/06/15 05:13:07;;;;;;;;;;;;;;;;;;5098295;28;19961;-79
2021/06/15 05:15:32;;;;;;;;;;;;;;;;;;5097892;28;20257;-79
2021/06/15 05:17:58;;;;;;;;;;;;;;;;;;5080275;28;19962;-79
2021/06/15 05:20:24;;;;;;;;;;;;;;;;;;5097488;28;19912;-79
2021/06/15 05:22:49;;;;;;;;;;;;;;;;;;5096533;28;20370;-79
2021/06/15 05:25:17;;;;;;;;;;;;;;;;;;5098167;28;19908;-79
2021/06/15 05:27:42;;;;;;;;;;;;;;;;;;5078552;28;20404;-79
2021/06/15 05:30:08;;;;;;;;;;;;;;;;;;5095272;28;19908;-80
2021/06/15 05:32:33;;;;;;;;;;;;;;;;;;5078529;28;19912;-80
2021/06/15 05:34:58;;;;;;;;;;;;;;;;;;5095783;28;20262;-80
2021/06/15 05:37:24;;;;;;;;;;;;;;;;;;5097228;28;19915;-80
2021/06/15 05:39:49;;;;;;;;;;;;;;;;;;5096045;28;19961;-80
2021/06/15 05:42:14;;;;;;;;;;;;;;;;;;5095766;28;19942;-80
2021/06/15 05:44:41;;;;;;;;;;;;;;;;;;5097299;28;19915;-80
2021/06/15 05:47:06;;;;;;;;;;;;;;;;;;5095785;28;19959;-80
2021/06/15 05:49:31;;;;;;;;;;;;;;;;;;5096389;28;19908;-80
2021/06/15 05:51:58;;;;;;;;;;;;;;;;;;5096002;28;20317;-80
2021/06/15 05:54:23;;;;;;;;;;;;;;;;;;5080620;28;19912;-80
2021/06/15 05:56:48;;;;;;;;;;;;;;;;;;5100289;28;19958;-80
2021/06/15 05:59:13;;;;;;;;;;;;;;;;;;5099417;28;20467;-80
2021/06/15 06:01:41;;;;;;;;;;;;;;;;;;5099386;28;19911;-80
2021/06/15 06:04:08;;;;;;;;;;;;;;;;;;5100663;28;19908;-80
2021/06/15 06:09:17;;;;;;;;;;;;;;;;;;5099903;28;19999;-79
2021/06/15 06:11:42;;;;;;;;;;;;;;;;;;5101623;28;19969;-80
2021/06/15 06:14:07;;;;;;;;;;;;;;;;;;5081262;28;19977;-80
2021/06/15 06:16:33;;;;;;;;;;;;;;;;;;5099401;28;19912;-80
2021/06/15 06:18:58;;;;;;;;;;;;;;;;;;5081307;28;19999;-80
2021/06/15 06:21:24;;;;;;;;;;;;;;;;;;5098266;28;19957;-80
2021/06/15 06:23:49;;;;;;;;;;;;;;;;;;5081716;28;19914;-80
2021/06/15 06:26:14;;;;;;;;;;;;;;;;;;5098483;28;20294;-80
2021/06/15 06:28:39;;;;;;;;;;;;;;;;;;5098619;28;19912;-80
2021/06/15 06:31:04;;;;;;;;;;;;;;;;;;5099150;28;19930;-80
2021/06/15 06:33:30;;;;;;;;;;;;;;;;;;5098976;28;19911;-80
2021/06/15 06:35:55;;;;;;;;;;;;;;;;;;5100213;28;19908;-80
2021/06/15 06:38:20;;;;;;;;;;;;;;;;;;5099894;28;19908;-80
2021/06/15 06:40:45;;;;;;;;;;;;;;;;;;5082161;28;19998;-80
2021/06/15 06:43:11;;;;;;;;;;;;;;;;;;5099401;28;19930;-80
2021/06/15 06:45:36;;;;;;;;;;;;;;;;;;5082067;28;19911;-79
2021/06/15 06:48:02;;;;;;;;;;;;;;;;;;5098962;28;19916;-80
2021/06/15 06:50:28;;;;;;;;;;;;;;;;;;5098176;28;20390;-80
2021/06/15 06:52:53;;;;;;;;;;;;;;;;;;5100243;28;19912;-80
2021/06/15 06:55:20;;;;;;;;;;;;;;;;;;5082338;28;19908;-80
2021/06/15 06:57:46;;;;;;;;;;;;;;;;;;5081255;28;19999;-80
2021/06/15 07:00:11;;;;;;;;;;;;;;;;;;5098896;28;19908;-80
2021/06/15 07:02:37;;;;;;;;;;;;;;;;;;5081499;28;19908;-80
2021/06/15 07:05:02;;;;;;;;;;;;;;;;;;5097484;28;19934;-80
2021/06/15 07:07:27;;;;;;;;;;;;;;;;;;5096336;28;20290;-80
2021/06/15 07:09:53;;;;;;;;;;;;;;;;;;5099066;28;19912;-80
2021/06/15 07:12:18;;;;;;;;;;;;;;;;;;5082028;28;19915;-80
2021/06/15 07:14:43;;;;;;;;;;;;;;;;;;5099066;28;19915;-80
2021/06/15 07:17:08;;;;;;;;;;;;;;;;;;5080912;28;19915;-80
2021/06/15 07:19:33;;;;;;;;;;;;;;;;;;5099054;28;19915;-80
2021/06/15 07:21:59;;;;;;;;;;;;;;;;;;5101646;28;19915;-80
2021/06/15 07:24:24;;;;;;;;;;;;;;;;;;5081798;28;20352;-80
2021/06/15 07:26:49;;;;;;;;;;;;;;;;;;5098035;28;20291;-80
2021/06/15 07:29:14;;;;;;;;;;;;;;;;;;5098790;28;19908;-79
2021/06/15 07:31:40;;;;;;;;;;;;;;;;;;5098724;28;19908;-80
2021/06/15 07:34:05;;;;;;;;;;;;;;;;;;5098802;28;19908;-80
2021/06/15 07:36:30;;;;;;;;;;;;;;;;;;5098313;28;20323;-80
2021/06/15 07:38:55;;;;;;;;;;;;;;;;;;5080960;28;19953;-80
2021/06/15 07:41:20;;;;;;;;;;;;;;;;;;5098218;28;19915;-80
2021/06/15 07:43:46;;;;;;;;;;;;;;;;;;5081835;28;19912;-80
2021/06/15 07:46:11;;;;;;;;;;;;;;;;;;5081433;28;19934;-80
2021/06/15 07:48:36;;;;;;;;;;;;;;;;;;5081577;28;19916;-80
2021/06/15 07:51:01;;;;;;;;;;;;;;;;;;5098159;28;19958;-80
2021/06/15 07:53:26;;;;;;;;;;;;;;;;;;5098175;28;19915;-80
2021/06/15 07:55:52;;;;;;;;;;;;;;;;;;5081117;28;19995;-80
2021/06/15 07:58:17;;;;;;;;;;;;;;;;;;5098323;28;19934;-80
2021/06/15 08:00:42;;;;;;;;;;;;;;;;;;5098564;28;19929;-80
2021/06/15 08:03:07;;;;;;;;;;;;;;;;;;5099137;28;19908;-80
2021/06/15 08:05:32;;;;;;;;;;;;;;;;;;5099375;28;19919;-80
2021/06/15 08:07:58;;;;;;;;;;;;;;;;;;5082000;28;19912;-80
2021/06/15 08:10:24;;;;;;;;;;;;;;;;;;5098517;28;19919;-80
2021/06/15 08:12:50;;;;;;;;;;;;;;;;;;5097833;28;20374;-80
2021/06/15 08:15:15;;;;;;;;;;;;;;;;;;5079545;28;19965;-80
2021/06/15 08:17:40;;;;;;;;;;;;;;;;;;5096447;28;19912;-80
2021/06/15 08:20:06;;;;;;;;;;;;;;;;;;5096871;28;19908;-80
2021/06/15 08:22:31;;;;;;;;;;;;;;;;;;5099466;28;20012;-79
2021/06/15 08:24:56;;;;;;;;;;;;;;;;;;5081225;28;20290;-80
2021/06/15 08:27:22;;;;;;;;;;;;;;;;;;5080537;28;20374;-80
2021/06/15 08:29:48;;;;;;;;;;;;;;;;;;5080607;28;19908;-80
2021/06/15 08:32:13;;;;;;;;;;;;;;;;;;5080003;28;20335;-80
2021/06/15 08:34:38;;;;;;;;;;;;;;;;;;5097586;28;19981;-80
2021/06/15 08:37:03;;;;;;;;;;;;;;;;;;5097904;28;19912;-80
2021/06/15 08:39:28;;;;;;;;;;;;;;;;;;5097294;28;19908;-80
2021/06/15 08:41:54;;;;;;;;;;;;;;;;;;5098881;28;19950;-80
2021/06/15 08:44:19;;;;;;;;;;;;;;;;;;5097728;28;19998;-80
2021/06/15 08:46:44;;;;;;;;;;;;;;;;;;5097593;28;20327;-80
2021/06/15 08:49:09;;;;;;;;;;;;;;;;;;5097079;28;19912;-80
2021/06/15 08:51:35;;;;;;;;;;;;;;;;;;5095699;28;19912;-80
2021/06/15 08:54:03;;;;;;;;;;;;;;;;;;5098518;28;19908;-80
2021/06/15 08:56:31;;;;;;;;;;;;;;;;;;5097401;28;20454;-80
2021/06/15 08:59:07;;;;;;;;;;;;;;;;;;5080871;28;19915;-80
2021/06/15 09:01:32;;;;;;;;;;;;;;;;;;5079473;28;20327;-80
2021/06/15 09:03:57;;;;;;;;;;;;;;;;;;5097198;28;19908;-80
2021/06/15 09:06:22;;;;;;;;;;;;;;;;;;5097566;28;19919;-79
2021/06/15 09:08:52;;;;;;;;;;;;;;;;;;5097970;28;19912;-80
2021/06/15 09:11:17;;;;;;;;;;;;;;;;;;5080377;28;19932;-80
2021/06/15 09:13:42;;;;;;;;;;;;;;;;;;5097434;28;20278;-80
2021/06/15 09:16:21;;;;;;;;;;;;;;;;;;5097079;28;19908;-80
2021/06/15 09:18:46;;;;;;;;;;;;;;;;;;5097390;28;19908;-80
2021/06/15 09:21:12;;;;;;;;;;;;;;;;;;5095792;28;19962;-79
2021/06/15 09:23:37;;;;;;;;;;;;;;;;;;5096288;28;19908;-80
2021/06/15 09:26:03;;;;;;;;;;;;;;;;;;5080372;28;20400;-80
2021/06/15 09:28:28;;;;;;;;;;;;;;;;;;5086926;22;19978;-76
2021/06/15 09:30:56;;;;;;;;;;;;;;;;;;5032734;28;19917;-77
2021/06/15 09:33:33;;;;;;;;;;;;;;;;;;5032830;28;19920;-77
2021/06/15 09:36:03;;;;;;;;;;;;;;;;;;5043503;27;19934;-77
2021/06/15 09:38:28;;;;;;;;;;;;;;;;;;5033569;27;19936;-78
2021/06/15 09:40:53;;;;;;;;;;;;;;;;;;5050156;27;20288;-77
2021/06/15 09:43:18;;;;;;;;;;;;;;;;;;5050362;27;19914;-77
2021/06/15 09:45:45;;;;;;;;;;;;;;;;;;5138220;27;19907;-77
2021/06/15 09:48:27;;;;;;;;;;;;;;;;;;5049809;27;20376;-77
2021/06/15 09:50:53;;;;;;;;;;;;;;;;;;5050465;27;19960;-76
2021/06/15 09:53:22;;;;;;;;;;;;;;;;;;5049934;27;19914;-77
2021/06/15 09:55:48;;;;;;;;;;;;;;;;;;5050087;27;20360;-76
2021/06/15 09:58:13;;;;;;;;;;;;;;;;;;5033152;27;19915;-76
2021/06/15 10:00:38;;;;;;;;;;;;;;;;;;5049972;27;19908;-77
2021/06/15 10:03:03;;;;;;;;;;;;;;;;;;5138315;27;19907;-76
2021/06/15 10:05:36;;;;;;;;;;;;;;;;;;5050272;27;19907;-76
2021/06/15 10:08:05;;;;;;;;;;;;;;;;;;5119635;27;20011;-77
2021/06/15 10:10:31;;;;;;;;;;;;;;;;;;5138033;27;19990;-77
2021/06/15 10:12:56;;;;;;;;;;;;;;;;;;5050270;27;20441;-77
2021/06/15 10:15:22;;;;;;;;;;;;;;;;;;5049646;27;19939;-77
2021/06/15 10:17:47;;;;;;;;;;;;;;;;;;5049752;27;20387;-77
2021/06/15 10:20:13;;;;;;;;;;;;;;;;;;5137842;27;20368;-77
2021/06/15 10:22:38;;;;;;;;;;;;;;;;;;5137694;27;19934;-77
2021/06/15 10:25:04;;;;;;;;;;;;;;;;;;5049734;27;19994;-77
2021/06/15 10:27:29;;;;;;;;;;;;;;;;;;5044420;27;19911;-77
2021/06/15 10:29:54;;;;;;;;;;;;;;;;;;5122257;27;20398;-77
2021/06/15 10:32:21;;;;;;;;;;;;;;;;;;5105100;28;20397;-77
2021/06/15 10:34:54;;;;;;;;;;;;;;;;;;5053106;28;19909;-77
2021/06/15 10:37:46;;;;;;;;;;;;;;;;;;5121716;27;19908;-77
2021/06/15 10:40:11;;;;;;;;;;;;;;;;;;5054526;27;20007;-77
2021/06/15 10:42:37;;;;;;;;;;;;;;;;;;5052862;28;19951;-77
2021/06/15 10:45:11;;;;;;;;;;;;;;;;;;5121973;27;19953;-77
2021/06/15 10:47:36;;;;;;;;;;;;;;;;;;5121857;27;20401;-77
2021/06/15 10:50:02;;;;;;;;;;;;;;;;;;5122116;27;19909;-77
2021/06/15 10:52:47;;;;;;;;;;;;;;;;;;5052683;28;19996;-77
2021/06/15 10:55:31;;;;;;;;;;;;;;;;;;5052582;28;19964;-77
2021/06/15 10:57:56;;;;;;;;;;;;;;;;;;5121692;27;20450;-77
2021/06/15 11:00:26;;;;;;;;;;;;;;;;;;5122253;27;20028;-77
2021/06/15 11:03:10;;;;;;;;;;;;;;;;;;5052540;28;19913;-76
2021/06/15 11:05:36;;;;;;;;;;;;;;;;;;5052499;28;19909;-77
2021/06/15 11:08:20;;;;;;;;;;;;;;;;;;5121473;27;19917;-76
2021/06/15 11:11:24;;;;;;;;;;;;;;;;;;5052405;28;20345;-77
2021/06/15 11:13:53;;;;;;;;;;;;;;;;;;5093865;28;20388;-76
2021/06/15 11:16:37;;;;;;;;;;;;;;;;;;5077072;28;19908;-77
2021/06/15 11:19:12;;;;;;;;;;;;;;;;;;5097422;27;19909;-77
2021/06/15 11:21:49;;;;;;;;;;;;;;;;;;5052294;28;20374;-77
2021/06/15 11:27:20;;;;;;;;;;;;;;;;;;5052524;28;19913;-77
2021/06/15 11:29:48;;;;;;;;;;;;;;;;;;5052145;28;19920;-78
2021/06/15 11:32:14;;;;;;;;;;;;;;;;;;5121003;27;19916;-77
2021/06/15 11:34:40;;;;;;;;;;;;;;;;;;5052057;28;19909;-77
2021/06/15 11:37:21;;;;;;;;;;;;;;;;;;5120812;27;19999;-77
2021/06/15 11:39:46;;;;;;;;;;;;;;;;;;5121047;27;19909;-77
2021/06/15 11:42:21;;;;;;;;;;;;;;;;;;5103901;28;19943;-77
2021/06/15 11:44:55;;;;;;;;;;;;;;;;;;5051944;28;19953;-77
2021/06/15 11:47:26;;;;;;;;;;;;;;;;;;5119482;27;19913;-77
2021/06/15 11:50:21;;;;;;;;;;;;;;;;;;5051844;28;19919;-76
2021/06/15 11:53:06;;;;;;;;;;;;;;;;;;5106964;27;19915;-77
2021/06/15 11:55:34;;;;;;;;;;;;;;;;;;5051820;28;20045;-77
2021/06/15 11:58:06;;;;;;;;;;;;;;;;;;5051662;28;19909;-77
2021/06/15 12:00:36;;;;;;;;;;;;;;;;;;5120578;27;19966;-77
2021/06/15 12:03:05;;;;;;;;;;;;;;;;;;5120417;27;19909;-77
2021/06/15 12:05:30;;;;;;;;;;;;;;;;;;5103493;27;19909;-76
2021/06/15 12:07:55;;;;;;;;;;;;;;;;;;5120480;27;19913;-76
2021/06/15 12:10:21;;;;;;;;;;;;;;;;;;5120573;27;20003;-77
2021/06/15 12:13:05;;;;;;;;;;;;;;;;;;5103137;28;19916;-77
2021/06/15 12:15:54;;;;;;;;;;;;;;;;;;5051417;28;19909;-76
2021/06/15 12:18:22;;;;;;;;;;;;;;;;;;5056742;27;19912;-77
2021/06/15 12:20:47;;;;;;;;;;;;;;;;;;5052333;28;20251;-77
2021/06/15 12:23:22;;;;;;;;;;;;;;;;;;5120116;27;19973;-77
2021/06/15 12:25:47;;;;;;;;;;;;;;;;;;5119806;27;20333;-77
2021/06/15 12:28:14;;;;;;;;;;;;;;;;;;5120053;27;19928;-77
2021/06/15 12:30:40;;;;;;;;;;;;;;;;;;5120086;27;19912;-77
2021/06/15 12:33:05;;;;;;;;;;;;;;;;;;5119797;27;19915;-77
2021/06/15 12:35:31;;;;;;;;;;;;;;;;;;5119725;27;19923;-77
2021/06/15 12:37:56;;;;;;;;;;;;;;;;;;5119946;27;20011;-77
2021/06/15 12:40:21;;;;;;;;;;;;;;;;;;5120188;27;19978;-77
2021/06/15 12:42:48;;;;;;;;;;;;;;;;;;5120379;27;19909;-77
2021/06/15 12:45:13;;;;;;;;;;;;;;;;;;5102449;28;19909;-77
2021/06/15 12:47:42;;;;;;;;;;;;;;;;;;5050757;28;19919;-77
2021/06/15 12:50:08;;;;;;;;;;;;;;;;;;5102509;28;19909;-77
2021/06/15 12:52:34;;;;;;;;;;;;;;;;;;5119951;27;19908;-77
2021/06/15 12:55:09;;;;;;;;;;;;;;;;;;5102614;28;19908;-77
2021/06/15 12:57:34;;;;;;;;;;;;;;;;;;5119485;27;19915;-76
2021/06/15 13:00:00;;;;;;;;;;;;;;;;;;5119619;27;19909;-77
2021/06/15 13:02:25;;;;;;;;;;;;;;;;;;5119427;27;19913;-76
2021/06/15 13:05:00;;;;;;;;;;;;;;;;;;5051055;28;19908;-77
2021/06/15 13:07:26;;;;;;;;;;;;;;;;;;5119456;27;19920;-77
2021/06/15 13:09:51;;;;;;;;;;;;;;;;;;5102190;28;19913;-77
2021/06/15 13:12:17;;;;;;;;;;;;;;;;;;5050580;28;19915;-77
2021/06/15 13:14:43;;;;;;;;;;;;;;;;;;5119793;27;19908;-78
2021/06/15 13:17:11;;;;;;;;;;;;;;;;;;5050652;28;20263;-77
2021/06/15 13:19:36;;;;;;;;;;;;;;;;;;5118240;27;19915;-77
2021/06/15 13:22:01;;;;;;;;;;;;;;;;;;5050647;28;19908;-77
2021/06/15 13:24:42;;;;;;;;;;;;;;;;;;5119058;28;19916;-77
2021/06/15 13:27:23;;;;;;;;;;;;;;;;;;5117518;28;19910;-77
2021/06/15 13:29:48;;;;;;;;;;;;;;;;;;5119466;28;19988;-77
2021/06/15 13:32:14;;;;;;;;;;;;;;;;;;5050309;28;19966;-77
2021/06/15 13:34:59;;;;;;;;;;;;;;;;;;5119242;28;20409;-77
2021/06/15 13:37:27;;;;;;;;;;;;;;;;;;5119186;28;19955;-77
2021/06/15 13:39:52;;;;;;;;;;;;;;;;;;5101902;28;19909;-77
2021/06/15 13:42:25;;;;;;;;;;;;;;;;;;5050385;28;20331;-77
2021/06/15 13:45:22;;;;;;;;;;;;;;;;;;5050168;28;19909;-77
2021/06/15 13:47:47;;;;;;;;;;;;;;;;;;5106853;28;20007;-76
2021/06/15 13:50:13;;;;;;;;;;;;;;;;;;5119120;28;19970;-76
2021/06/15 13:52:38;;;;;;;;;;;;;;;;;;5050292;28;19908;-77
2021/06/15 13:55:04;;;;;;;;;;;;;;;;;;5050134;28;19931;-77
2021/06/15 13:57:29;;;;;;;;;;;;;;;;;;5114544;28;20031;-77
2021/06/15 13:59:55;;;;;;;;;;;;;;;;;;5116294;28;20007;-78
2021/06/15 14:02:20;;;;;;;;;;;;;;;;;;5116406;28;20011;-79
2021/06/15 14:04:45;;;;;;;;;;;;;;;;;;5115193;28;20024;-77
2021/06/15 14:07:11;;;;;;;;;;;;;;;;;;5115557;28;20065;-77
2021/06/15 14:09:36;;;;;;;;;;;;;;;;;;5114678;28;20003;-76
2021/06/15 14:12:02;;;;;;;;;;;;;;;;;;5046277;28;20031;-77
2021/06/15 14:14:27;;;;;;;;;;;;;;;;;;5097917;28;20290;-76
2021/06/15 14:16:52;;;;;;;;;;;;;;;;;;5101434;28;19909;-77
2021/06/15 14:19:17;;;;;;;;;;;;;;;;;;5118865;27;20306;-77
2021/06/15 14:21:43;;;;;;;;;;;;;;;;;;5049300;28;20359;-77
2021/06/15 14:24:09;;;;;;;;;;;;;;;;;;5049999;28;20036;-78
2021/06/15 14:26:35;;;;;;;;;;;;;;;;;;5120062;27;19913;-78
2021/06/15 14:29:00;;;;;;;;;;;;;;;;;;5119489;27;19939;-78
2021/06/15 14:31:25;;;;;;;;;;;;;;;;;;5120142;27;19913;-77
2021/06/15 14:33:50;;;;;;;;;;;;;;;;;;5119148;27;19913;-78
2021/06/15 14:36:15;;;;;;;;;;;;;;;;;;5101695;28;20335;-78
2021/06/15 14:38:41;;;;;;;;;;;;;;;;;;5050158;28;19923;-77
2021/06/15 14:41:06;;;;;;;;;;;;;;;;;;5050514;28;20406;-77
2021/06/15 14:43:31;;;;;;;;;;;;;;;;;;5101767;28;19919;-79
2021/06/15 14:45:56;;;;;;;;;;;;;;;;;;5050062;28;19913;-77
2021/06/15 14:48:21;;;;;;;;;;;;;;;;;;5051090;28;19924;-78
2021/06/15 14:50:47;;;;;;;;;;;;;;;;;;5102586;28;19919;-78
2021/06/15 14:53:12;;;;;;;;;;;;;;;;;;5119803;27;19909;-79
2021/06/15 14:55:37;;;;;;;;;;;;;;;;;;5102374;28;19913;-78
2021/06/15 14:58:02;;;;;;;;;;;;;;;;;;5120576;27;19910;-77
2021/06/15 15:00:28;;;;;;;;;;;;;;;;;;5052912;27;20328;-77
2021/06/15 15:02:53;;;;;;;;;;;;;;;;;;5053193;28;19912;-77
2021/06/15 15:05:18;;;;;;;;;;;;;;;;;;5122337;27;19908;-77
2021/06/15 15:07:44;;;;;;;;;;;;;;;;;;5122394;27;19913;-78
2021/06/15 15:10:10;;;;;;;;;;;;;;;;;;5053073;28;19909;-78
2021/06/15 15:12:36;;;;;;;;;;;;;;;;;;5122330;27;20042;-77
2021/06/15 15:15:01;;;;;;;;;;;;;;;;;;5121883;27;19944;-77
2021/06/15 15:17:27;;;;;;;;;;;;;;;;;;5052591;28;19915;-77
2021/06/15 15:19:53;;;;;;;;;;;;;;;;;;5052424;28;19981;-77
2021/06/15 15:22:19;;;;;;;;;;;;;;;;;;5121572;27;19909;-77
2021/06/15 15:24:44;;;;;;;;;;;;;;;;;;5121219;27;19944;-77
2021/06/15 15:27:09;;;;;;;;;;;;;;;;;;5120195;27;19956;-77
2021/06/15 15:29:35;;;;;;;;;;;;;;;;;;5120459;27;19958;-78
2021/06/15 15:32:00;;;;;;;;;;;;;;;;;;5120279;28;20343;-77
2021/06/15 15:34:25;;;;;;;;;;;;;;;;;;5102912;28;19909;-76
2021/06/15 15:36:50;;;;;;;;;;;;;;;;;;5120083;28;19909;-77
2021/06/15 15:39:15;;;;;;;;;;;;;;;;;;5051117;28;19912;-77
2021/06/15 15:41:41;;;;;;;;;;;;;;;;;;5102772;28;19962;-77
2021/06/15 15:44:06;;;;;;;;;;;;;;;;;;5051103;28;20367;-77
2021/06/15 15:46:31;;;;;;;;;;;;;;;;;;5050849;28;19912;-77
2021/06/15 15:48:57;;;;;;;;;;;;;;;;;;5120102;28;19913;-77
2021/06/15 15:51:23;;;;;;;;;;;;;;;;;;5102828;28;20433;-77
2021/06/15 15:53:48;;;;;;;;;;;;;;;;;;5051189;28;20398;-77
2021/06/15 15:56:13;;;;;;;;;;;;;;;;;;5119941;28;19959;-77
2021/06/15 15:58:39;;;;;;;;;;;;;;;;;;5051018;28;19997;-76
2021/06/15 16:01:04;;;;;;;;;;;;;;;;;;5120160;28;20037;-77
2021/06/15 16:03:29;;;;;;;;;;;;;;;;;;5102390;28;20282;-77
2021/06/15 16:05:54;;;;;;;;;;;;;;;;;;5119611;28;20291;-77
2021/06/15 16:08:20;;;;;;;;;;;;;;;;;;5119627;28;19934;-77
2021/06/15 16:10:45;;;;;;;;;;;;;;;;;;5102473;28;19909;-77
2021/06/15 16:13:10;;;;;;;;;;;;;;;;;;5050710;28;19909;-77
2021/06/15 16:15:36;;;;;;;;;;;;;;;;;;5102226;28;19916;-76
2021/06/15 16:18:02;;;;;;;;;;;;;;;;;;5102415;28;19935;-77
2021/06/15 16:20:27;;;;;;;;;;;;;;;;;;5119115;28;19908;-77
2021/06/15 16:22:53;;;;;;;;;;;;;;;;;;5050581;28;20007;-77
2021/06/15 16:25:18;;;;;;;;;;;;;;;;;;5050506;28;20367;-76
2021/06/15 16:27:43;;;;;;;;;;;;;;;;;;5111969;27;67668;-77
2021/06/15 16:30:09;;;;;;;;;;;;;;;;;;5108147;27;20351;-76
2021/06/15 16:32:34;;;;;;;;;;;;;;;;;;5120084;27;19995;-76
2021/06/15 16:34:59;;;;;;;;;;;;;;;;;;5120288;27;19908;-77
2021/06/15 16:37:24;;;;;;;;;;;;;;;;;;5119743;27;19985;-77
2021/06/15 16:39:50;;;;;;;;;;;;;;;;;;5050924;28;19999;-77
2021/06/15 16:42:15;;;;;;;;;;;;;;;;;;5102631;28;19931;-77
2021/06/15 16:44:40;;;;;;;;;;;;;;;;;;5119838;27;19908;-76
2021/06/15 16:47:05;;;;;;;;;;;;;;;;;;5051032;28;19909;-77
2021/06/15 16:49:31;;;;;;;;;;;;;;;;;;5119649;27;19913;-77
2021/06/15 16:51:56;;;;;;;;;;;;;;;;;;5102579;28;19915;-77
2021/06/15 16:54:21;;;;;;;;;;;;;;;;;;5119754;27;19913;-76